sensor_id;sensor_type;location;lat;lon;timestamp;pressure;altitude;pressure_sealevel;temperature;humidity
65227;BME280;51805;49.012;12.104;2023-04-23T00:00:24;97187.09;;;23.08;47.18
65227;BME280;51805;49.012;12.104;2023-04-23T00:02:51;97200.34;;;23.09;47.15
65227;BME280;51805;49.012;12.104;2023-04-23T00:05:18;97200.34;;;23.09;47.15
65227;BME280;51805;49.012;12.104;2023-04-23T00:07:45;97208.78;;;23.08;47.11
65227;BME280;51805;49.012;12.104;2023-04-23T00:10:11;97203.34;;;23.08;47.00
65227;BME280;51805;49.012;12.104;2023-04-23T00:12:36;97193.09;;;23.04;47.13
65227;BME280;51805;49.012;12.104;2023-04-23T00:15:03;97170.84;;;22.94;47.06
65227;BME280;51805;49.012;12.104;2023-04-23T00:17:29;97187.69;;;23.04;47.17
65227;BME280;51805;49.012;12.104;2023-04-23T00:19:54;97168.25;;;23.02;47.18
65227;BME280;51805;49.012;12.104;2023-04-23T00:22:19;97172.75;;;23.07;47.03
65227;BME280;51805;49.012;12.104;2023-04-23T00:24:45;97169.22;;;23.07;47.13
65227;BME280;51805;49.012;12.104;2023-04-23T00:27:10;97163.41;;;22.99;46.95
65227;BME280;51805;49.012;12.104;2023-04-23T00:29:36;97139.22;;;22.89;47.12
65227;BME280;51805;49.012;12.104;2023-04-23T00:32:01;97133.91;;;22.84;46.88
65227;BME280;51805;49.012;12.104;2023-04-23T00:34:26;97160.41;;;23.01;47.13
65227;BME280;51805;49.012;12.104;2023-04-23T00:36:52;97159.59;;;23.00;47.03
65227;BME280;51805;49.012;12.104;2023-04-23T00:39:17;97150.75;;;22.95;46.96
65227;BME280;51805;49.012;12.104;2023-04-23T00:41:42;97155.56;;;22.98;47.02
65227;BME280;51805;49.012;12.104;2023-04-23T00:44:08;97162.31;;;23.00;46.97
65227;BME280;51805;49.012;12.104;2023-04-23T00:46:34;97166.00;;;23.04;47.12
65227;BME280;51805;49.012;12.104;2023-04-23T00:48:59;97159.59;;;23.00;46.95
65227;BME280;51805;49.012;12.104;2023-04-23T00:51:27;97150.75;;;22.95;46.99
65227;BME280;51805;49.012;12.104;2023-04-23T00:53:52;97144.34;;;22.91;47.06
65227;BME280;51805;49.012;12.104;2023-04-23T00:56:17;97159.50;;;23.06;47.00
65227;BME280;51805;49.012;12.104;2023-04-23T00:58:43;97161.72;;;23.03;47.02
65227;BME280;51805;49.012;12.104;2023-04-23T01:01:10;97166.00;;;23.04;46.99
65227;BME280;51805;49.012;12.104;2023-04-23T01:03:36;97150.44;;;22.96;47.00
65227;BME280;51805;49.012;12.104;2023-04-23T01:06:03;97165.22;;;23.04;46.98
65227;BME280;51805;49.012;12.104;2023-04-23T01:08:30;97148.34;;;22.93;47.25
65227;BME280;51805;49.012;12.104;2023-04-23T01:10:56;97137.50;;;22.93;47.11
65227;BME280;51805;49.012;12.104;2023-04-23T01:13:22;97153.56;;;23.03;47.07
65227;BME280;51805;49.012;12.104;2023-04-23T01:15:47;97130.88;;;22.86;46.98
65227;BME280;51805;49.012;12.104;2023-04-23T01:18:13;97134.09;;;22.88;47.11
65227;BME280;51805;49.012;12.104;2023-04-23T01:20:39;97153.75;;;22.93;47.05
65227;BME280;51805;49.012;12.104;2023-04-23T01:23:04;97147.34;;;22.89;47.12
65227;BME280;51805;49.012;12.104;2023-04-23T01:25:30;97146.53;;;22.89;47.16
65227;BME280;51805;49.012;12.104;2023-04-23T01:27:56;97156.97;;;22.95;47.09
65227;BME280;51805;49.012;12.104;2023-04-23T01:30:26;97124.88;;;22.75;47.22
65227;BME280;51805;49.012;12.104;2023-04-23T01:32:53;97145.94;;;22.92;47.12
65227;BME280;51805;49.012;12.104;2023-04-23T01:35:19;97165.03;;;23.00;47.06
65227;BME280;51805;49.012;12.104;2023-04-23T01:37:45;97156.78;;;22.92;47.01
65227;BME280;51805;49.012;12.104;2023-04-23T01:40:11;97162.63;;;22.99;47.03
65227;BME280;51805;49.012;12.104;2023-04-23T01:42:37;97138.22;;;22.85;47.16
65227;BME280;51805;49.012;12.104;2023-04-23T01:45:03;97147.94;;;22.86;47.10
65227;BME280;51805;49.012;12.104;2023-04-23T01:47:28;97160.81;;;22.94;47.14
65227;BME280;51805;49.012;12.104;2023-04-23T01:49:54;97174.22;;;22.99;47.08
65227;BME280;51805;49.012;12.104;2023-04-23T01:52:19;97171.81;;;22.98;47.11
65227;BME280;51805;49.012;12.104;2023-04-23T01:54:44;97158.41;;;22.93;47.11
65227;BME280;51805;49.012;12.104;2023-04-23T01:57:09;97171.81;;;22.98;47.16
65227;BME280;51805;49.012;12.104;2023-04-23T01:59:36;97154.97;;;22.87;47.21
65227;BME280;51805;49.012;12.104;2023-04-23T02:02:01;97163.81;;;22.93;47.18
65227;BME280;51805;49.012;12.104;2023-04-23T02:04:26;97154.19;;;22.87;47.15
65227;BME280;51805;49.012;12.104;2023-04-23T02:06:52;97166.22;;;22.94;47.07
65227;BME280;51805;49.012;12.104;2023-04-23T02:09:17;97168.63;;;22.96;47.12
65227;BME280;51805;49.012;12.104;2023-04-23T02:11:42;97160.09;;;22.89;47.03
65227;BME280;51805;49.012;12.104;2023-04-23T02:14:09;97174.84;;;22.96;47.07
65227;BME280;51805;49.012;12.104;2023-04-23T02:16:34;97153.16;;;22.83;47.12
65227;BME280;51805;49.012;12.104;2023-04-23T02:19:00;97171.66;;;22.94;47.06
65227;BME280;51805;49.012;12.104;2023-04-23T02:21:25;97170.63;;;22.90;47.20
65227;BME280;51805;49.012;12.104;2023-04-23T02:23:50;97168.50;;;22.87;47.03
65227;BME280;51805;49.012;12.104;2023-04-23T02:26:16;97154.78;;;22.84;47.18
65227;BME280;51805;49.012;12.104;2023-04-23T02:28:41;97174.44;;;22.89;46.87
65227;BME280;51805;49.012;12.104;2023-04-23T02:31:06;97177.66;;;22.91;47.00
65227;BME280;51805;49.012;12.104;2023-04-23T02:33:32;97167.00;;;22.81;46.94
65227;BME280;51805;49.012;12.104;2023-04-23T02:35:57;97175.84;;;22.87;47.03
65227;BME280;51805;49.012;12.104;2023-04-23T02:38:22;97169.19;;;22.79;47.11
65227;BME280;51805;49.012;12.104;2023-04-23T02:40:47;97187.38;;;22.92;47.19
65227;BME280;51805;49.012;12.104;2023-04-23T02:43:13;97177.84;;;22.81;47.24
65227;BME280;51805;49.012;12.104;2023-04-23T02:45:38;97186.28;;;22.93;47.17
65227;BME280;51805;49.012;12.104;2023-04-23T02:48:03;97177.84;;;22.81;47.16
65227;BME280;51805;49.012;12.104;2023-04-23T02:50:28;97167.59;;;22.78;47.16
65227;BME280;51805;49.012;12.104;2023-04-23T02:52:54;97191.69;;;22.93;47.00
65227;BME280;51805;49.012;12.104;2023-04-23T02:55:19;97170.81;;;22.80;47.10
65227;BME280;51805;49.012;12.104;2023-04-23T02:57:44;97168.63;;;22.82;47.08
65227;BME280;51805;49.012;12.104;2023-04-23T03:00:10;97185.88;;;22.86;47.15
65227;BME280;51805;49.012;12.104;2023-04-23T03:02:36;97186.69;;;22.87;47.13
65227;BME280;51805;49.012;12.104;2023-04-23T03:05:01;97186.69;;;22.87;47.17
65227;BME280;51805;49.012;12.104;2023-04-23T03:07:26;97190.50;;;22.86;47.03
65227;BME280;51805;49.012;12.104;2023-04-23T03:09:51;97176.56;;;22.79;47.16
65227;BME280;51805;49.012;12.104;2023-04-23T03:12:17;97187.19;;;22.89;47.09
65227;BME280;51805;49.012;12.104;2023-04-23T03:14:42;97196.94;;;22.90;47.13
65227;BME280;51805;49.012;12.104;2023-04-23T03:17:07;97193.91;;;22.91;47.15
65227;BME280;51805;49.012;12.104;2023-04-23T03:19:33;97196.13;;;22.89;47.20
65227;BME280;51805;49.012;12.104;2023-04-23T03:21:58;97190.41;;;22.91;47.21
65227;BME280;51805;49.012;12.104;2023-04-23T03:24:23;97182.66;;;22.84;47.17
65227;BME280;51805;49.012;12.104;2023-04-23T03:26:48;97191.50;;;22.90;47.17
65227;BME280;51805;49.012;12.104;2023-04-23T03:29:14;97194.53;;;22.88;47.15
65227;BME280;51805;49.012;12.104;2023-04-23T03:31:39;97184.88;;;22.82;47.10
65227;BME280;51805;49.012;12.104;2023-04-23T03:34:04;97195.00;;;22.90;47.17
65227;BME280;51805;49.012;12.104;2023-04-23T03:36:30;97188.69;;;22.81;47.14
65227;BME280;51805;49.012;12.104;2023-04-23T03:38:55;97190.78;;;22.84;47.11
65227;BME280;51805;49.012;12.104;2023-04-23T03:41:20;97198.81;;;22.89;47.39
65227;BME280;51805;49.012;12.104;2023-04-23T03:43:45;97182.66;;;22.84;47.20
65227;BME280;51805;49.012;12.104;2023-04-23T03:46:11;97194.91;;;22.82;47.16
65227;BME280;51805;49.012;12.104;2023-04-23T03:48:36;97167.81;;;22.68;47.10
65227;BME280;51805;49.012;12.104;2023-04-23T03:51:01;97193.50;;;22.84;47.13
65227;BME280;51805;49.012;12.104;2023-04-23T03:53:27;97181.75;;;22.75;47.20
65227;BME280;51805;49.012;12.104;2023-04-23T03:55:52;97197.03;;;22.85;47.21
65227;BME280;51805;49.012;12.104;2023-04-23T03:58:17;97184.97;;;22.77;47.16
65227;BME280;51805;49.012;12.104;2023-04-23T04:00:42;97179.03;;;22.75;47.45
65227;BME280;51805;49.012;12.104;2023-04-23T04:03:08;97197.31;;;22.83;47.18
65227;BME280;51805;49.012;12.104;2023-04-23T04:05:34;97200.53;;;22.85;46.92
65227;BME280;51805;49.012;12.104;2023-04-23T04:07:59;97198.72;;;22.81;47.00
65227;BME280;51805;49.012;12.104;2023-04-23T04:10:25;97186.88;;;22.77;47.06
65227;BME280;51805;49.012;12.104;2023-04-23T04:12:50;97211.88;;;22.87;47.17
65227;BME280;51805;49.012;12.104;2023-04-23T04:15:15;97206.44;;;22.87;47.31
65227;BME280;51805;49.012;12.104;2023-04-23T04:17:40;97194.91;;;22.82;47.24
65227;BME280;51805;49.012;12.104;2023-04-23T04:20:06;97200.53;;;22.85;47.16
65227;BME280;51805;49.012;12.104;2023-04-23T04:22:32;97209.16;;;22.87;47.10
65227;BME280;51805;49.012;12.104;2023-04-23T04:24:57;97187.78;;;22.72;47.41
65227;BME280;51805;49.012;12.104;2023-04-23T04:27:22;97210.34;;;22.81;47.27
65227;BME280;51805;49.012;12.104;2023-04-23T04:29:48;97213.78;;;22.87;47.15
65227;BME280;51805;49.012;12.104;2023-04-23T04:32:13;97196.19;;;22.71;47.10
65227;BME280;51805;49.012;12.104;2023-04-23T04:34:38;97204.53;;;22.74;47.19
65227;BME280;51805;49.012;12.104;2023-04-23T04:37:04;97222.81;;;22.82;47.20
65227;BME280;51805;49.012;12.104;2023-04-23T04:39:29;97217.19;;;22.79;47.24
65227;BME280;51805;49.012;12.104;2023-04-23T04:41:55;97215.78;;;22.81;47.30
65227;BME280;51805;49.012;12.104;2023-04-23T04:44:20;97216.78;;;22.85;47.14
65227;BME280;51805;49.012;12.104;2023-04-23T04:46:46;97213.66;;;22.78;47.13
65227;BME280;51805;49.012;12.104;2023-04-23T04:49:11;97191.66;;;22.66;47.08
65227;BME280;51805;49.012;12.104;2023-04-23T04:51:37;97223.81;;;22.86;47.18
65227;BME280;51805;49.012;12.104;2023-04-23T04:54:03;97227.13;;;22.83;47.20
65227;BME280;51805;49.012;12.104;2023-04-23T04:56:29;97212.84;;;22.78;47.24
65227;BME280;51805;49.012;12.104;2023-04-23T04:58:54;97224.63;;;22.87;47.02
65227;BME280;51805;49.012;12.104;2023-04-23T05:01:22;97233.84;;;22.86;47.15
65227;BME280;51805;49.012;12.104;2023-04-23T05:03:48;97213.44;;;22.75;47.17
65227;BME280;51805;49.012;12.104;2023-04-23T05:06:13;97220.97;;;22.78;47.19
65227;BME280;51805;49.012;12.104;2023-04-23T05:08:38;97233.53;;;22.87;47.12
65227;BME280;51805;49.012;12.104;2023-04-23T05:11:04;97240.88;;;22.87;47.17
65227;BME280;51805;49.012;12.104;2023-04-23T05:13:29;97241.66;;;22.87;47.22
65227;BME280;51805;49.012;12.104;2023-04-23T05:15:54;97240.06;;;22.86;47.13
65227;BME280;51805;49.012;12.104;2023-04-23T05:18:19;97232.63;;;22.78;47.18
65227;BME280;51805;49.012;12.104;2023-04-23T05:20:45;97229.50;;;22.71;47.21
65227;BME280;51805;49.012;12.104;2023-04-23T05:23:10;97251.50;;;22.83;47.05
65227;BME280;51805;49.012;12.104;2023-04-23T05:25:35;97240.22;;;22.76;47.14
65227;BME280;51805;49.012;12.104;2023-04-23T05:28:01;97247.50;;;22.81;47.07
65227;BME280;51805;49.012;12.104;2023-04-23T05:30:26;97268.75;;;22.87;47.11
65227;BME280;51805;49.012;12.104;2023-04-23T05:32:51;97253.47;;;22.78;47.05
65227;BME280;51805;49.012;12.104;2023-04-23T05:35:16;97255.09;;;22.79;47.32
65227;BME280;51805;49.012;12.104;2023-04-23T05:37:42;97271.16;;;22.89;47.09
65227;BME280;51805;49.012;12.104;2023-04-23T05:40:08;97266.34;;;22.86;47.21
65227;BME280;51805;49.012;12.104;2023-04-23T05:42:36;97264.31;;;22.78;47.21
65227;BME280;51805;49.012;12.104;2023-04-23T05:45:02;97257.91;;;22.74;47.18
65227;BME280;51805;49.012;12.104;2023-04-23T05:47:28;97250.66;;;22.69;47.10
65227;BME280;51805;49.012;12.104;2023-04-23T05:49:53;97275.38;;;22.81;47.18
65227;BME280;51805;49.012;12.104;2023-04-23T05:52:18;97268.34;;;22.80;47.13
65227;BME280;51805;49.012;12.104;2023-04-23T05:54:44;97276.47;;;22.80;47.08
65227;BME280;51805;49.012;12.104;2023-04-23T05:57:10;97267.31;;;22.76;47.12
65227;BME280;51805;49.012;12.104;2023-04-23T05:59:35;97247.44;;;22.67;46.97
65227;BME280;51805;49.012;12.104;2023-04-23T06:02:00;97270.31;;;22.75;47.16
65227;BME280;51805;49.012;12.104;2023-04-23T06:04:26;97290.25;;;22.84;47.06
65227;BME280;51805;49.012;12.104;2023-04-23T06:06:51;97292.06;;;22.88;46.95
65227;BME280;51805;49.012;12.104;2023-04-23T06:09:16;97289.34;;;22.88;46.99
65227;BME280;51805;49.012;12.104;2023-04-23T06:11:43;97301.19;;;22.92;46.78
65227;BME280;51805;49.012;12.104;2023-04-23T06:14:09;97291.03;;;22.84;46.96
65227;BME280;51805;49.012;12.104;2023-04-23T06:16:34;97293.75;;;22.84;47.04
65227;BME280;51805;49.012;12.104;2023-04-23T06:18:59;97293.75;;;22.84;47.11
65227;BME280;51805;49.012;12.104;2023-04-23T06:21:25;97289.72;;;22.82;47.05
65227;BME280;51805;49.012;12.104;2023-04-23T06:23:50;97282.41;;;22.82;47.16
65227;BME280;51805;49.012;12.104;2023-04-23T06:26:16;97300.66;;;22.90;47.18
65227;BME280;51805;49.012;12.104;2023-04-23T06:28:43;97303.91;;;22.92;47.02
65227;BME280;51805;49.012;12.104;2023-04-23T06:31:09;97287.22;;;22.85;47.15
65227;BME280;51805;49.012;12.104;2023-04-23T06:33:35;97300.06;;;22.93;47.04
65227;BME280;51805;49.012;12.104;2023-04-23T06:36:00;97290.13;;;22.89;47.08
65227;BME280;51805;49.012;12.104;2023-04-23T06:38:25;97280.19;;;22.84;46.94
65227;BME280;51805;49.012;12.104;2023-04-23T06:40:50;97289.94;;;22.85;47.08
65227;BME280;51805;49.012;12.104;2023-04-23T06:43:16;97291.47;;;22.91;47.00
65227;BME280;51805;49.012;12.104;2023-04-23T06:45:41;97298.19;;;22.94;47.10
65227;BME280;51805;49.012;12.104;2023-04-23T06:48:06;97295.56;;;22.89;47.06
65227;BME280;51805;49.012;12.104;2023-04-23T06:50:31;97300.06;;;22.93;47.10
65227;BME280;51805;49.012;12.104;2023-04-23T06:52:57;97288.25;;;22.89;47.13
65227;BME280;51805;49.012;12.104;2023-04-23T06:55:22;97275.38;;;22.81;47.09
65227;BME280;51805;49.012;12.104;2023-04-23T06:57:47;97297.06;;;22.95;47.02
65227;BME280;51805;49.012;12.104;2023-04-23T07:00:13;97288.84;;;22.86;46.93
65227;BME280;51805;49.012;12.104;2023-04-23T07:02:38;97275.38;;;22.81;47.05
65227;BME280;51805;49.012;12.104;2023-04-23T07:05:04;97286.66;;;22.88;46.94
65227;BME280;51805;49.012;12.104;2023-04-23T07:07:29;97278.38;;;22.80;46.99
65227;BME280;51805;49.012;12.104;2023-04-23T07:09:54;97296.28;;;22.94;47.03
65227;BME280;51805;49.012;12.104;2023-04-23T07:12:19;97291.66;;;22.95;47.05
65227;BME280;51805;49.012;12.104;2023-04-23T07:14:45;97293.06;;;22.92;46.87
65227;BME280;51805;49.012;12.104;2023-04-23T07:17:10;97301.91;;;22.98;47.12
65227;BME280;51805;49.012;12.104;2023-04-23T07:19:36;97286.81;;;22.92;47.23
65227;BME280;51805;49.012;12.104;2023-04-23T07:22:01;97297.28;;;22.98;46.70
65227;BME280;51805;49.012;12.104;2023-04-23T07:24:27;97292.25;;;22.92;47.10
65227;BME280;51805;49.012;12.104;2023-04-23T07:26:52;97297.06;;;22.95;47.04
65227;BME280;51805;49.012;12.104;2023-04-23T07:29:18;97274.78;;;22.84;47.04
65227;BME280;51805;49.012;12.104;2023-04-23T07:31:43;97301.69;;;22.94;47.05
65227;BME280;51805;49.012;12.104;2023-04-23T07:34:08;97309.84;;;22.94;47.07
65227;BME280;51805;49.012;12.104;2023-04-23T07:36:34;97310.31;;;22.96;47.17
65227;BME280;51805;49.012;12.104;2023-04-23T07:38:59;97310.72;;;22.90;47.01
65227;BME280;51805;49.012;12.104;2023-04-23T07:41:25;97313.13;;;22.91;47.33
65227;BME280;51805;49.012;12.104;2023-04-23T07:43:50;97320.06;;;22.97;47.05
65227;BME280;51805;49.012;12.104;2023-04-23T07:46:15;97322.78;;;22.97;47.12
65227;BME280;51805;49.012;12.104;2023-04-23T07:48:41;97316.94;;;22.90;47.10
65227;BME280;51805;49.012;12.104;2023-04-23T07:51:07;97319.34;;;22.92;47.03
65227;BME280;51805;49.012;12.104;2023-04-23T07:53:33;97323.09;;;22.96;46.91
65227;BME280;51805;49.012;12.104;2023-04-23T07:55:59;97324.38;;;22.98;47.00
65227;BME280;51805;49.012;12.104;2023-04-23T07:58:24;97311.72;;;22.94;47.05
65227;BME280;51805;49.012;12.104;2023-04-23T08:00:50;97305.00;;;22.91;47.08
65227;BME280;51805;49.012;12.104;2023-04-23T08:03:15;97316.34;;;22.93;47.02
65227;BME280;51805;49.012;12.104;2023-04-23T08:05:40;97299.06;;;22.89;47.00
65227;BME280;51805;49.012;12.104;2023-04-23T08:08:10;97314.66;;;22.97;47.09
65227;BME280;51805;49.012;12.104;2023-04-23T08:10:35;97309.31;;;22.92;46.82
65227;BME280;51805;49.012;12.104;2023-04-23T08:13:01;97306.31;;;22.94;47.20
65227;BME280;51805;49.012;12.104;2023-04-23T08:15:26;97320.56;;;22.99;47.15
65227;BME280;51805;49.012;12.104;2023-04-23T08:17:52;97312.72;;;22.98;47.06
65227;BME280;51805;49.012;12.104;2023-04-23T08:20:17;97310.03;;;22.98;46.99
65227;BME280;51805;49.012;12.104;2023-04-23T08:22:42;97317.59;;;23.01;47.26
65227;BME280;51805;49.012;12.104;2023-04-23T08:25:08;97302.19;;;22.96;46.96
65227;BME280;51805;49.012;12.104;2023-04-23T08:27:33;97303.31;;;22.95;46.90
65227;BME280;51805;49.012;12.104;2023-04-23T08:29:59;97298.47;;;22.92;47.10
65227;BME280;51805;49.012;12.104;2023-04-23T08:32:24;97297.38;;;22.93;47.19
65227;BME280;51805;49.012;12.104;2023-04-23T08:34:49;97297.88;;;22.95;46.98
65227;BME280;51805;49.012;12.104;2023-04-23T08:37:15;97304.31;;;22.99;47.05
65227;BME280;51805;49.012;12.104;2023-04-23T08:39:40;97293.06;;;22.92;47.19
65227;BME280;51805;49.012;12.104;2023-04-23T08:42:23;97289.53;;;22.92;47.09
65227;BME280;51805;49.012;12.104;2023-04-23T08:44:51;97296.28;;;22.94;47.15
65227;BME280;51805;49.012;12.104;2023-04-23T08:47:17;97310.25;;;23.01;47.11
65227;BME280;51805;49.012;12.104;2023-04-23T08:49:44;97300.88;;;22.94;47.13
65227;BME280;51805;49.012;12.104;2023-04-23T08:52:18;97314.56;;;23.02;47.12
65227;BME280;51805;49.012;12.104;2023-04-23T08:54:52;97310.25;;;23.01;47.05
65227;BME280;51805;49.012;12.104;2023-04-23T08:57:18;97310.84;;;22.98;46.96
65227;BME280;51805;49.012;12.104;2023-04-23T08:59:44;97305.13;;;23.00;47.04
65227;BME280;51805;49.012;12.104;2023-04-23T09:02:10;97304.31;;;22.99;47.12
65227;BME280;51805;49.012;12.104;2023-04-23T09:04:38;97298.09;;;22.99;47.10
65227;BME280;51805;49.012;12.104;2023-04-23T09:07:05;97305.03;;;23.05;47.09
65227;BME280;51805;49.012;12.104;2023-04-23T09:09:30;97296.16;;;22.99;47.15
65227;BME280;51805;49.012;12.104;2023-04-23T09:11:56;97283.34;;;22.91;47.05
65227;BME280;51805;49.012;12.104;2023-04-23T09:14:22;97282.63;;;22.99;46.76
65227;BME280;51805;49.012;12.104;2023-04-23T09:16:48;97274.50;;;22.99;46.99
65227;BME280;51805;49.012;12.104;2023-04-23T09:19:14;97275.69;;;22.93;47.15
65227;BME280;51805;49.012;12.104;2023-04-23T09:21:42;97282.63;;;22.99;47.00
65227;BME280;51805;49.012;12.104;2023-04-23T09:24:08;97286.88;;;23.06;47.07
65227;BME280;51805;49.012;12.104;2023-04-23T09:26:34;97255.44;;;22.91;47.19
65227;BME280;51805;49.012;12.104;2023-04-23T09:29:01;97271.78;;;22.99;46.97
65227;BME280;51805;49.012;12.104;2023-04-23T09:31:26;97262.06;;;22.98;47.13
65227;BME280;51805;49.012;12.104;2023-04-23T09:33:53;97279.84;;;23.04;47.18
65227;BME280;51805;49.012;12.104;2023-04-23T09:36:22;97276.34;;;23.04;47.05
65227;BME280;51805;49.012;12.104;2023-04-23T09:38:49;97269.81;;;23.05;47.13
65227;BME280;51805;49.012;12.104;2023-04-23T09:41:24;97273.34;;;23.06;46.98
65227;BME280;51805;49.012;12.104;2023-04-23T09:43:56;97271.41;;;23.06;46.93
65227;BME280;51805;49.012;12.104;2023-04-23T09:46:37;97271.41;;;23.06;47.09
65227;BME280;51805;49.012;12.104;2023-04-23T09:49:04;97253.34;;;23.01;47.05
65227;BME280;51805;49.012;12.104;2023-04-23T09:51:29;97263.56;;;23.04;47.15
65227;BME280;51805;49.012;12.104;2023-04-23T09:53:55;97265.19;;;23.06;46.90
65227;BME280;51805;49.012;12.104;2023-04-23T09:56:20;97273.50;;;23.09;47.09
65227;BME280;51805;49.012;12.104;2023-04-23T09:58:46;97283.28;;;23.10;47.04
65227;BME280;51805;49.012;12.104;2023-04-23T10:01:11;97274.63;;;23.08;46.92
65227;BME280;51805;49.012;12.104;2023-04-23T10:03:41;97272.72;;;23.09;47.06
65227;BME280;51805;49.012;12.104;2023-04-23T10:06:06;97269.81;;;23.05;47.18
65227;BME280;51805;49.012;12.104;2023-04-23T10:08:32;97277.03;;;23.10;47.03
65227;BME280;51805;49.012;12.104;2023-04-23T10:10:57;97279.75;;;23.10;46.97
65227;BME280;51805;49.012;12.104;2023-04-23T10:13:23;97272.22;;;23.07;47.20
65227;BME280;51805;49.012;12.104;2023-04-23T10:15:48;97259.56;;;23.02;47.09
65227;BME280;51805;49.012;12.104;2023-04-23T10:18:14;97261.38;;;23.07;47.00
65227;BME280;51805;49.012;12.104;2023-04-23T10:20:40;97278.63;;;23.11;47.13
65227;BME280;51805;49.012;12.104;2023-04-23T10:23:07;97271.63;;;23.10;47.16
65227;BME280;51805;49.012;12.104;2023-04-23T10:25:34;97274.31;;;23.10;46.87
65227;BME280;51805;49.012;12.104;2023-04-23T10:28:00;97269.50;;;23.07;47.17
65227;BME280;51805;49.012;12.104;2023-04-23T10:30:27;97266.19;;;23.10;47.07
65227;BME280;51805;49.012;12.104;2023-04-23T10:32:54;97257.56;;;23.08;47.14
65227;BME280;51805;49.012;12.104;2023-04-23T10:35:20;97264.00;;;23.12;47.11
65227;BME280;51805;49.012;12.104;2023-04-23T10:37:49;97252.13;;;23.08;47.11
65227;BME280;51805;49.012;12.104;2023-04-23T10:40:20;97264.78;;;23.12;47.13
65227;BME280;51805;49.012;12.104;2023-04-23T10:42:48;97247.31;;;23.04;47.04
65227;BME280;51805;49.012;12.104;2023-04-23T10:45:18;97256.66;;;23.12;47.07
65227;BME280;51805;49.012;12.104;2023-04-23T10:47:44;97254.34;;;23.06;47.12
65227;BME280;51805;49.012;12.104;2023-04-23T10:50:20;97263.19;;;23.11;47.17
65227;BME280;51805;49.012;12.104;2023-04-23T10:52:45;97259.19;;;23.09;47.09
65227;BME280;51805;49.012;12.104;2023-04-23T10:55:16;97259.97;;;23.09;47.12
65227;BME280;51805;49.012;12.104;2023-04-23T10:58:01;97254.75;;;23.13;47.09
65227;BME280;51805;49.012;12.104;2023-04-23T11:06:00;97252.94;;;23.08;47.15
65227;BME280;51805;49.012;12.104;2023-04-23T11:08:25;97249.94;;;23.10;47.07
65227;BME280;51805;49.012;12.104;2023-04-23T11:10:57;97245.31;;;23.10;46.94
65227;BME280;51805;49.012;12.104;2023-04-23T11:13:24;97248.53;;;23.12;47.10
65227;BME280;51805;49.012;12.104;2023-04-23T11:18:57;97245.50;;;23.14;47.02
65227;BME280;51805;49.012;12.104;2023-04-23T11:24:27;97245.50;;;23.14;47.11
65227;BME280;51805;49.012;12.104;2023-04-23T11:26:53;97250.03;;;23.18;47.04
65227;BME280;51805;49.012;12.104;2023-04-23T11:29:21;97234.06;;;23.17;47.25
65227;BME280;51805;49.012;12.104;2023-04-23T11:31:47;97230.56;;;23.16;46.95
65227;BME280;51805;49.012;12.104;2023-04-23T11:34:12;97236.69;;;23.22;47.05
65227;BME280;51805;49.012;12.104;2023-04-23T11:36:38;97231.56;;;23.20;47.01
65227;BME280;51805;49.012;12.104;2023-04-23T11:39:04;97235.88;;;23.21;47.16
65227;BME280;51805;49.012;12.104;2023-04-23T11:41:29;97232.38;;;23.21;46.87
65227;BME280;51805;49.012;12.104;2023-04-23T11:43:54;97222.13;;;23.18;46.88
65227;BME280;51805;49.012;12.104;2023-04-23T11:46:20;97216.31;;;23.24;46.88
65227;BME280;51805;49.012;12.104;2023-04-23T11:48:47;97211.19;;;23.23;46.79
65227;BME280;51805;49.012;12.104;2023-04-23T11:51:13;97211.91;;;23.28;46.89
65227;BME280;51805;49.012;12.104;2023-04-23T11:53:46;97209.41;;;23.32;46.83
65227;BME280;51805;49.012;12.104;2023-04-23T11:56:15;97181.66;;;23.21;46.79
65227;BME280;51805;49.012;12.104;2023-04-23T11:58:40;97183.53;;;23.26;46.86
65227;BME280;51805;49.012;12.104;2023-04-23T12:01:05;97178.56;;;23.28;46.95
65227;BME280;51805;49.012;12.104;2023-04-23T12:03:31;97172.75;;;23.34;46.83
65227;BME280;51805;49.012;12.104;2023-04-23T12:05:57;97150.84;;;23.31;46.76
65227;BME280;51805;49.012;12.104;2023-04-23T12:08:22;97154.38;;;23.31;46.77
65227;BME280;51805;49.012;12.104;2023-04-23T12:10:53;97148.66;;;23.33;46.68
65227;BME280;51805;49.012;12.104;2023-04-23T12:13:22;97153.97;;;23.38;46.81
65227;BME280;51805;49.012;12.104;2023-04-23T12:15:53;97151.75;;;23.40;46.73
65227;BME280;51805;49.012;12.104;2023-04-23T12:18:19;97161.59;;;23.36;46.83
65227;BME280;51805;49.012;12.104;2023-04-23T12:20:44;97172.03;;;23.42;46.68
65227;BME280;51805;49.012;12.104;2023-04-23T12:23:09;97175.25;;;23.44;46.64
65227;BME280;51805;49.012;12.104;2023-04-23T12:25:35;97172.56;;;23.44;46.72
65227;BME280;51805;49.012;12.104;2023-04-23T12:28:02;97159.78;;;23.45;46.61
65227;BME280;51805;49.012;12.104;2023-04-23T12:30:31;97148.16;;;23.44;46.50
65227;BME280;51805;49.012;12.104;2023-04-23T12:33:00;97150.25;;;23.47;46.51
65227;BME280;51805;49.012;12.104;2023-04-23T12:38:06;97151.13;;;23.56;46.52
65227;BME280;51805;49.012;12.104;2023-04-23T12:40:32;97141.06;;;23.57;46.56
65227;BME280;51805;49.012;12.104;2023-04-23T12:42:58;97132.16;;;23.56;46.49
65227;BME280;51805;49.012;12.104;2023-04-23T12:45:23;97123.81;;;23.53;46.80
65227;BME280;51805;49.012;12.104;2023-04-23T12:47:48;97120.78;;;23.54;46.48
65227;BME280;51805;49.012;12.104;2023-04-23T12:50:13;97121.78;;;23.58;46.54
65227;BME280;51805;49.012;12.104;2023-04-23T12:52:40;97123.41;;;23.59;46.31
65227;BME280;51805;49.012;12.104;2023-04-23T12:55:06;97119.75;;;23.64;46.42
65227;BME280;51805;49.012;12.104;2023-04-23T12:57:31;97113.31;;;23.60;46.42